King of Scandinavia — OVOL2 — position and weather

sailwx.info

Track history (hours):
 
Tides and Currents Weather Stations Pressure Air Temp Water Temp Dewpoint Dewpoint Depression Visibility Wind Speed Wind Dir Waves Ship Positions

King of Scandinavia

Ship's website: http://www.dfds.co.uk/DSW/EN/OnBoard/na/KING.htm

Last reported at 2018-Nov-11 00:49 UTC. Time now 2018-Nov-13 07:09 UTC.
Position N 53°41' E 001°52'.

Length 166 m; beam 27.6 m; draft 6.2 m.

Type: Ship. MMSI: 220449000.

Date/timePositionNaut miles runAvg speedWind from/ knotsBaromVisibWave heightAir tempDewpointWater temp
2018-Nov-11 00:49N 53°41' E 001°52'12518.0
2018-Nov-10 17:52N 54°52' W 001°04'618.2
2018-Nov-10 17:33N 54°56' W 001°11'917.2
2018-Nov-10 17:03N 55°01' W 001°24'2 4.5
2018-Nov-10 16:32N 54°59' W 001°27'0 0.0
2018-Nov-10 16:01N 54°59' W 001°27'0 0.0
2018-Nov-10 15:24N 54°59' W 001°27'0 0.0
2018-Nov-10 14:54N 54°59' W 001°27'0 0.0
2018-Nov-10 14:24N 54°59' W 001°27'0 0.0
2018-Nov-10 13:43N 54°59' W 001°27'0 0.0
2018-Nov-10 13:28N 54°59' W 001°27'0 0.0
2018-Nov-10 12:58N 54°59' W 001°27'0 0.0
2018-Nov-10 12:27N 54°59' W 001°27'0 0.0
2018-Nov-10 11:58N 54°59' W 001°27'0 0.0
2018-Nov-10 11:27N 54°59' W 001°27'0 0.0
2018-Nov-10 10:57N 54°59' W 001°27'0 0.0
2018-Nov-10 10:30N 54°59' W 001°27'0 0.0
2018-Nov-10 09:58N 54°59' W 001°27'0 0.0
2018-Nov-10 09:30N 54°59' W 001°27'0 0.0
2018-Nov-10 09:02N 54°59' W 001°27'3 6.9
2018-Nov-10 08:32N 55°01' W 001°22'816.0
2018-Nov-10 08:02N 54°56' W 001°10'23316.5
2018-Nov-09 17:52N 52°40' E 004°10'516.4
2018-Nov-09 17:32N 52°36' E 004°17'816.2
2018-Nov-09 17:02N 52°31' E 004°27'611.2
2018-Nov-09 16:32N 52°28' E 004°35'0 0.7
2018-Nov-09 16:02N 52°28' E 004°35'0 0.0
2018-Nov-09 15:32N 52°28' E 004°35'0 0.0
2018-Nov-09 15:02N 52°28' E 004°35'0 0.0
2018-Nov-09 14:32N 52°28' E 004°35'0 0.0
2018-Nov-09 14:02N 52°28' E 004°35'0 0.0
2018-Nov-09 13:32N 52°28' E 004°35'0 0.0
2018-Nov-09 13:02N 52°28' E 004°35'0 0.0
2018-Nov-09 12:32N 52°28' E 004°35'0 0.0
2018-Nov-09 12:02N 52°28' E 004°35'0 0.0
2018-Nov-09 11:32N 52°28' E 004°35'0 0.0
2018-Nov-09 11:02N 52°28' E 004°35'0 0.0
2018-Nov-09 10:32N 52°28' E 004°35'0 0.0
2018-Nov-09 10:02N 52°28' E 004°35'0 0.0
2018-Nov-09 09:32N 52°28' E 004°35'0 0.0
2018-Nov-09 09:02N 52°28' E 004°35'0 0.4
2018-Nov-09 08:32N 52°28' E 004°35'3 6.9
2018-Nov-09 08:02N 52°28' E 004°29'815.3
2018-Nov-09 07:32N 52°34' E 004°20'815.2
2018-Nov-09 07:02N 52°39' E 004°11'10617.6
2018-Nov-09 00:59N 53°42' E 001°48'1217.3
2018-Nov-09 00:19N 53°49' E 001°32'717.3
2018-Nov-08 23:54N 53°54' E 001°23'817.4
2018-Nov-08 23:25N 53°59' E 001°13'4317.7
2018-Nov-08 20:59N 54°24' E 000°13'5217.6
2018-Nov-08 18:01N 54°53' W 001°03'917.8
2018-Nov-08 17:32N 54°58' W 001°15'713.9
2018-Nov-08 17:03N 55°00' W 001°26'1 2.2
2018-Nov-08 16:33N 54°59' W 001°27'0 0.0
2018-Nov-08 15:55N 54°59' W 001°27'0 0.0
2018-Nov-08 15:25N 54°59' W 001°27'0 0.0
2018-Nov-08 14:58N 54°59' W 001°27'0 0.0
2018-Nov-08 14:28N 54°59' W 001°27'0 0.0
2018-Nov-08 13:58N 54°59' W 001°27'0 0.0
2018-Nov-08 13:28N 54°59' W 001°27'0 0.0
2018-Nov-08 12:58N 54°59' W 001°27'0 0.0
2018-Nov-08 12:31N 54°59' W 001°27'0 0.0
2018-Nov-08 12:01N 54°59' W 001°27'0 0.0
2018-Nov-08 11:31N 54°59' W 001°27'0 0.0
2018-Nov-08 11:01N 54°59' W 001°27'0 0.0
2018-Nov-08 10:28N 54°59' W 001°27'0 0.0
2018-Nov-08 10:01N 54°59' W 001°27'0 0.0
2018-Nov-08 09:31N 54°59' W 001°27'0 0.2
2018-Nov-08 09:02N 54°60' W 001°27'4 7.6
2018-Nov-08 08:33N 55°01' W 001°21'815.5
2018-Nov-08 08:02N 54°56' W 001°09'23616.5
2018-Nov-07 17:44N 52°38' E 004°14'315.3
2018-Nov-07 17:33N 52°36' E 004°18'815.5
2018-Nov-07 17:03N 52°31' E 004°28'510.4
2018-Nov-07 16:32N 52°28' E 004°35'0 0.0
2018-Nov-07 16:02N 52°28' E 004°35'0 0.0
2018-Nov-07 15:32N 52°28' E 004°35'0 0.0
2018-Nov-07 15:02N 52°28' E 004°35'0 0.0
2018-Nov-07 14:32N 52°28' E 004°35'0 0.0
2018-Nov-07 13:59N 52°28' E 004°35'0 0.0
2018-Nov-07 13:32N 52°28' E 004°35'0 0.0
2018-Nov-07 12:59N 52°28' E 004°35'0 0.0
2018-Nov-07 12:32N 52°28' E 004°35'0 0.0
2018-Nov-07 12:02N 52°28' E 004°35'0 0.0
2018-Nov-07 11:32N 52°28' E 004°35'0 0.0
2018-Nov-07 10:59N 52°28' E 004°35'0 0.0
2018-Nov-07 10:29N 52°28' E 004°35'0 0.0
2018-Nov-07 10:02N 52°28' E 004°35'0 0.0
2018-Nov-07 09:32N 52°28' E 004°35'0 0.0
2018-Nov-07 08:59N 52°28' E 004°35'0 0.1
2018-Nov-07 08:32N 52°28' E 004°35'4 8.3
2018-Nov-07 08:02N 52°29' E 004°28'714.4
2018-Nov-07 07:32N 52°34' E 004°20'815.6
2018-Nov-07 07:02N 52°39' E 004°11'917.4
2018-Nov-07 06:32N 52°45' E 004°00'22017.6
2018-Nov-06 18:05N 54°53' W 001°03'017.4
2018-Nov-06 18:03N 54°53' W 001°03'117.3
2018-Nov-06 18:00N 54°54' W 001°04'917.5
2018-Nov-06 17:30N 54°59' W 001°17'612.3
2018-Nov-06 17:03N 55°00' W 001°26'0 6.1
2018-Nov-06 17:00N 55°00' W 001°27'1 1.5
2018-Nov-06 16:30N 54°59' W 001°27'0 0.0
2018-Nov-06 16:00N 54°59' W 001°27'0 0.0
2018-Nov-06 15:30N 54°59' W 001°27'0 0.0
2018-Nov-06 15:00N 54°59' W 001°27'0 0.0
2018-Nov-06 14:30N 54°59' W 001°27'0 0.0
2018-Nov-06 14:00N 54°59' W 001°27'0 0.0
2018-Nov-06 13:24N 54°59' W 001°27'0 0.0
2018-Nov-06 12:57N 54°59' W 001°27'0 0.0
2018-Nov-06 12:30N 54°59' W 001°27'0 0.0
2018-Nov-06 12:03N 54°59' W 001°27'0 0.0
2018-Nov-06 12:00N 54°59' W 001°27'0 0.0
2018-Nov-06 11:30N 54°59' W 001°27'0 0.0
2018-Nov-06 11:00N 54°59' W 001°27'0 0.0
2018-Nov-06 10:30N 54°59' W 001°27'0 0.0
2018-Nov-06 10:00N 54°59' W 001°27'0 0.0
2018-Nov-06 09:30N 54°59' W 001°27'0 0.1
2018-Nov-06 09:03N 54°59' W 001°27'0 4.5
2018-Nov-06 09:00N 54°60' W 001°27'4 7.5
2018-Nov-06 08:30N 55°00' W 001°20'715.4
2018-Nov-06 08:03N 54°55' W 001°12'115.2
2018-Nov-06 08:00N 54°55' W 001°10'11716.1
2018-Nov-06 00:44N 53°49' E 001°37'4616.6
2018-Nov-05 21:58N 53°23' E 002°41'2316.0
2018-Nov-05 20:33N 53°10' E 003°11'116.0
2018-Nov-05 20:30N 53°09' E 003°12'715.8
2018-Nov-05 20:03N 53°05' E 003°21'215.8
2018-Nov-05 19:56N 53°03' E 003°23'2215.7
2018-Nov-05 18:30N 52°49' E 003°52'815.5
2018-Nov-05 17:59N 52°44' E 004°02'815.7
2018-Nov-05 17:29N 52°39' E 004°12'715.8
2018-Nov-05 17:03N 52°34' E 004°20'115.6
2018-Nov-05 17:00N 52°34' E 004°21'815.7
2018-Nov-05 16:30N 52°29' E 004°31'3 6.0
2018-Nov-05 16:04N 52°28' E 004°35'0 0.0
2018-Nov-05 16:00N 52°28' E 004°35'0 0.0
2018-Nov-05 15:29N 52°28' E 004°35'0 0.0
2018-Nov-05 15:02N 52°28' E 004°35'0 0.0
2018-Nov-05 14:56N 52°28' E 004°35'0 0.0
2018-Nov-05 14:29N 52°28' E 004°35'0 0.0
2018-Nov-05 14:02N 52°28' E 004°35'0 0.0
2018-Nov-05 13:59N 52°28' E 004°35'0 0.0
2018-Nov-05 13:02N 52°28' E 004°35'0 0.0
2018-Nov-05 12:56N 52°28' E 004°35'0 0.0
2018-Nov-05 12:29N 52°28' E 004°35'0 0.0
2018-Nov-05 12:02N 52°28' E 004°35'0 0.0
2018-Nov-05 11:59N 52°28' E 004°35'0 0.0
2018-Nov-05 11:29N 52°28' E 004°35'0 0.0
2018-Nov-05 11:02N 52°28' E 004°35'0 0.0
2018-Nov-05 10:59N 52°28' E 004°35'0 0.0
2018-Nov-05 10:29N 52°28' E 004°35'0 0.0
2018-Nov-05 10:02N 52°28' E 004°35'0 0.0
2018-Nov-05 09:59N 52°28' E 004°35'0 0.0
2018-Nov-05 09:29N 52°28' E 004°35'0 0.0
2018-Nov-05 08:56N 52°28' E 004°35'0 0.1
2018-Nov-05 08:30N 52°28' E 004°35'3 5.8
2018-Nov-05 08:03N 52°28' E 004°31'115.5
2018-Nov-05 08:00N 52°29' E 004°30'815.5
2018-Nov-05 07:30N 52°34' E 004°20'715.4
2018-Nov-05 07:03N 52°38' E 004°11'115.4
2018-Nov-05 07:00N 52°39' E 004°10'1315.3
2018-Nov-05 06:10N 52°47' E 003°55'315.7
2018-Nov-05 05:57N 52°50' E 003°50'815.8
2018-Nov-05 05:26N 52°55' E 003°40'615.9
2018-Nov-05 05:03N 52°59' E 003°32'115.7
2018-Nov-05 04:59N 52°59' E 003°31'1618.2
2018-Nov-05 04:07N 53°09' E 003°11'618.4
2018-Nov-05 03:47N 53°13' E 003°02'7817.7
2018-Nov-04 23:22N 53°58' E 001°14'617.8
2018-Nov-04 23:03N 54°02' E 001°08'117.9
2018-Nov-04 23:00N 54°03' E 001°07'1117.7
2018-Nov-04 22:23N 54°09' E 000°51'617.6
2018-Nov-04 22:03N 54°12' E 000°43'117.5
2018-Nov-04 22:00N 54°13' E 000°41'917.6
2018-Nov-04 21:30N 54°17' E 000°29'1017.6
2018-Nov-04 20:55N 54°23' E 000°15'5417.4
2018-Nov-04 17:51N 54°53' W 001°02'617.7
2018-Nov-04 17:30N 54°56' W 001°11'817.1
2018-Nov-04 17:01N 55°01' W 001°24'2 4.6
2018-Nov-04 16:30N 54°59' W 001°27'0 0.0
2018-Nov-04 16:03N 54°59' W 001°27'0 0.0
2018-Nov-04 16:00N 54°59' W 001°27'0 0.0
2018-Nov-04 15:30N 54°59' W 001°27'0 0.0
2018-Nov-04 15:03N 54°59' W 001°27'0 0.0
2018-Nov-04 15:00N 54°59' W 001°27'0 0.0
2018-Nov-04 14:30N 54°59' W 001°27'0 0.0
2018-Nov-04 14:03N 54°59' W 001°27'0 0.0
2018-Nov-04 14:00N 54°59' W 001°27'0 0.0
2018-Nov-04 13:27N 54°59' W 001°27'0 0.0
2018-Nov-04 13:03N 54°59' W 001°27'0 0.0
2018-Nov-04 12:54N 54°59' W 001°27'0 0.0
2018-Nov-04 12:21N 54°59' W 001°27'0 0.0
2018-Nov-04 12:03N 54°59' W 001°27'0 0.0
2018-Nov-04 11:51N 54°59' W 001°27'0 0.0
2018-Nov-04 11:24N 54°59' W 001°27'0 0.0
2018-Nov-04 11:03N 54°59' W 001°27'0 0.0
2018-Nov-04 10:54N 54°59' W 001°27'0 0.0
2018-Nov-04 10:24N 54°59' W 001°27'0 0.0
2018-Nov-04 10:03N 54°59' W 001°27'0 0.0
2018-Nov-04 09:54N 54°59' W 001°27'0 0.0
2018-Nov-04 09:27N 54°59' W 001°27'0 0.0
2018-Nov-04 09:03N 54°59' W 001°27'0 1.7
2018-Nov-04 09:00N 54°60' W 001°27'5 9.5
2018-Nov-04 08:30N 54°60' W 001°19'716.4
2018-Nov-04 08:03N 54°55' W 001°08'116.4
2018-Nov-04 08:00N 54°55' W 001°07'23016.1
2018-Nov-03 17:43N 52°41' E 004°08'415.4
2018-Nov-03 17:27N 52°38' E 004°13'615.4
2018-Nov-03 17:03N 52°34' E 004°21'115.3
2018-Nov-03 17:01N 52°34' E 004°22'815.3
2018-Nov-03 16:30N 52°28' E 004°31'2 5.5
2018-Nov-03 16:03N 52°28' E 004°35'0 0.0
2018-Nov-03 16:00N 52°28' E 004°35'0 0.0
2018-Nov-03 15:28N 52°28' E 004°35'0 0.0
2018-Nov-03 14:28N 52°28' E 004°35'0 0.0
2018-Nov-03 14:01N 52°28' E 004°35'0 0.0
2018-Nov-03 13:58N 52°28' E 004°35'0 0.0
2018-Nov-03 13:28N 52°28' E 004°35'0 0.0
2018-Nov-03 12:58N 52°28' E 004°35'0 0.0
2018-Nov-03 12:28N 52°28' E 004°35'0 0.0
2018-Nov-03 11:58N 52°28' E 004°35'0 0.0
2018-Nov-03 11:28N 52°28' E 004°35'0 0.0
2018-Nov-03 10:58N 52°28' E 004°35'0 0.0
2018-Nov-03 10:28N 52°28' E 004°35'0 0.0
2018-Nov-03 10:01N 52°28' E 004°35'0 0.0
2018-Nov-03 09:58N 52°28' E 004°35'0 0.0
2018-Nov-03 09:28N 52°28' E 004°35'0 0.0
2018-Nov-03 09:01N 52°28' E 004°35'0 0.0
2018-Nov-03 08:58N 52°28' E 004°35'0 0.1
2018-Nov-03 08:30N 52°28' E 004°35'3 6.5
2018-Nov-03 08:03N 52°28' E 004°30'114.7
2018-Nov-03 08:01N 52°28' E 004°29'714.2
2018-Nov-03 07:31N 52°33' E 004°21'715.1
2018-Nov-03 07:03N 52°38' E 004°13'115.7
2018-Nov-03 07:00N 52°39' E 004°12'815.8
2018-Nov-03 06:31N 52°44' E 004°02'5417.4
2018-Nov-03 03:25N 53°17' E 002°52'918.5
2018-Nov-03 02:57N 53°23' E 002°40'3318.4
2018-Nov-03 01:09N 53°40' E 001°53'218.6
2018-Nov-03 01:01N 53°41' E 001°50'018.4
2018-Nov-03 01:00N 53°41' E 001°49'1218.0
2018-Nov-03 00:22N 53°48' E 001°33'6218.2
2018-Nov-02 20:59N 54°25' E 000°10'4917.8
2018-Nov-02 18:14N 54°53' W 001°00'317.8
2018-Nov-02 18:03N 54°54' W 001°05'117.8
2018-Nov-02 18:00N 54°55' W 001°06'917.8
2018-Nov-02 17:30N 54°59' W 001°19'4 9.2
2018-Nov-02 17:03N 54°60' W 001°27'0 5.1
2018-Nov-02 17:00N 54°60' W 001°27'0 0.2
2018-Nov-02 16:30N 54°59' W 001°27'0 0.0
2018-Nov-02 15:55N 54°59' W 001°27'0 0.0
2018-Nov-02 15:25N 54°59' W 001°27'0 0.0
2018-Nov-02 14:58N 54°59' W 001°27'0 0.0
2018-Nov-02 14:28N 54°59' W 001°27'0 0.0
2018-Nov-02 13:58N 54°59' W 001°27'0 0.0
2018-Nov-02 13:28N 54°59' W 001°27'0 0.0
2018-Nov-02 12:58N 54°59' W 001°27'0 0.0
2018-Nov-02 12:28N 54°59' W 001°27'0 0.0
2018-Nov-02 11:58N 54°59' W 001°27'0 0.0
2018-Nov-02 11:28N 54°59' W 001°27'0 0.0
2018-Nov-02 11:01N 54°59' W 001°27'0 0.0
2018-Nov-02 10:58N 54°59' W 001°27'0 0.0
2018-Nov-02 10:28N 54°59' W 001°27'0 0.0
2018-Nov-02 10:01N 54°59' W 001°27'0 0.0
2018-Nov-02 09:58N 54°59' W 001°27'0 0.0
2018-Nov-02 09:28N 54°59' W 001°27'0 0.6
2018-Nov-02 09:03N 54°60' W 001°27'0 6.3
2018-Nov-02 09:00N 54°60' W 001°27'5 9.5
2018-Nov-02 08:30N 54°60' W 001°18'814.9
2018-Nov-02 08:00N 54°55' W 001°08'23616.1
2018-Nov-01 17:22N 52°36' E 004°16'515.6
2018-Nov-01 17:03N 52°33' E 004°22'115.7
2018-Nov-01 17:00N 52°33' E 004°23'815.5
2018-Nov-01 16:30N 52°28' E 004°33'2 3.3
2018-Nov-01 16:03N 52°28' E 004°35'0 0.0
2018-Nov-01 16:00N 52°28' E 004°35'0 0.0
2018-Nov-01 15:28N 52°28' E 004°35'0 0.0
2018-Nov-01 15:01N 52°28' E 004°35'0 0.0
2018-Nov-01 14:58N 52°28' E 004°35'0 0.0
2018-Nov-01 14:28N 52°28' E 004°35'0 0.0
2018-Nov-01 13:58N 52°28' E 004°35'0 0.0
2018-Nov-01 13:28N 52°28' E 004°35'0 0.0
2018-Nov-01 13:01N 52°28' E 004°35'0 0.0
2018-Nov-01 12:58N 52°28' E 004°35'0 0.0
2018-Nov-01 12:28N 52°28' E 004°35'0 0.0
2018-Nov-01 12:01N 52°28' E 004°35'0 0.0
2018-Nov-01 11:58N 52°28' E 004°35'0 0.0
2018-Nov-01 11:28N 52°28' E 004°35'0 0.0
2018-Nov-01 10:58N 52°28' E 004°35'0 0.0
2018-Nov-01 10:28N 52°28' E 004°35'0 0.0
2018-Nov-01 10:01N 52°28' E 004°35'0 0.0
2018-Nov-01 09:58N 52°28' E 004°35'0 0.0
2018-Nov-01 09:28N 52°28' E 004°35'0 0.0
2018-Nov-01 09:03N 52°28' E 004°35'0 0.1
2018-Nov-01 09:00N 52°28' E 004°35'2 4.6
2018-Nov-01 08:31N 52°28' E 004°31'715.9
2018-Nov-01 08:04N 52°33' E 004°23'116.1
2018-Nov-01 08:01N 52°34' E 004°22'816.3
2018-Nov-01 07:30N 52°39' E 004°11'816.6
2018-Nov-01 07:03N 52°44' E 004°02'116.4
2018-Nov-01 07:01N 52°44' E 004°01'  
Track history (hours):
 
Tides and Currents Weather Stations Pressure Air Temp Water Temp Dewpoint Dewpoint Depression Visibility Wind Speed Wind Dir Waves Ship Positions

King of Scandinavia

Ship's website: http://www.dfds.co.uk/DSW/EN/OnBoard/na/KING.htm

Last reported at 2018-Nov-11 00:49 UTC. Time now 2018-Nov-13 07:09 UTC.
Position N 53°41' E 001°52'.

Length 166 m; beam 27.6 m; draft 6.2 m.

Type: Ship. MMSI: 220449000.

Date/timePositionNaut miles runAvg speedWind from/ knotsBaromVisibWave heightAir tempDewpointWater temp
2018-Nov-11 00:49N 53°41' E 001°52'12518.0
2018-Nov-10 17:52N 54°52' W 001°04'618.2
2018-Nov-10 17:33N 54°56' W 001°11'917.2
2018-Nov-10 17:03N 55°01' W 001°24'2 4.5
2018-Nov-10 16:32N 54°59' W 001°27'0 0.0
2018-Nov-10 16:01N 54°59' W 001°27'0 0.0
2018-Nov-10 15:24N 54°59' W 001°27'0 0.0
2018-Nov-10 14:54N 54°59' W 001°27'0 0.0
2018-Nov-10 14:24N 54°59' W 001°27'0 0.0
2018-Nov-10 13:43N 54°59' W 001°27'0 0.0
2018-Nov-10 13:28N 54°59' W 001°27'0 0.0
2018-Nov-10 12:58N 54°59' W 001°27'0 0.0
2018-Nov-10 12:27N 54°59' W 001°27'0 0.0
2018-Nov-10 11:58N 54°59' W 001°27'0 0.0
2018-Nov-10 11:27N 54°59' W 001°27'0 0.0
2018-Nov-10 10:57N 54°59' W 001°27'0 0.0
2018-Nov-10 10:30N 54°59' W 001°27'0 0.0
2018-Nov-10 09:58N 54°59' W 001°27'0 0.0
2018-Nov-10 09:30N 54°59' W 001°27'0 0.0
2018-Nov-10 09:02N 54°59' W 001°27'3 6.9
2018-Nov-10 08:32N 55°01' W 001°22'816.0
2018-Nov-10 08:02N 54°56' W 001°10'23316.5
2018-Nov-09 17:52N 52°40' E 004°10'516.4
2018-Nov-09 17:32N 52°36' E 004°17'816.2
2018-Nov-09 17:02N 52°31' E 004°27'611.2
2018-Nov-09 16:32N 52°28' E 004°35'0 0.7
2018-Nov-09 16:02N 52°28' E 004°35'0 0.0
2018-Nov-09 15:32N 52°28' E 004°35'0 0.0
2018-Nov-09 15:02N 52°28' E 004°35'0 0.0
2018-Nov-09 14:32N 52°28' E 004°35'0 0.0
2018-Nov-09 14:02N 52°28' E 004°35'0 0.0
2018-Nov-09 13:32N 52°28' E 004°35'0 0.0
2018-Nov-09 13:02N 52°28' E 004°35'0 0.0
2018-Nov-09 12:32N 52°28' E 004°35'0 0.0
2018-Nov-09 12:02N 52°28' E 004°35'0 0.0
2018-Nov-09 11:32N 52°28' E 004°35'0 0.0
2018-Nov-09 11:02N 52°28' E 004°35'0 0.0
2018-Nov-09 10:32N 52°28' E 004°35'0 0.0
2018-Nov-09 10:02N 52°28' E 004°35'0 0.0
2018-Nov-09 09:32N 52°28' E 004°35'0 0.0
2018-Nov-09 09:02N 52°28' E 004°35'0 0.4
2018-Nov-09 08:32N 52°28' E 004°35'3 6.9
2018-Nov-09 08:02N 52°28' E 004°29'815.3
2018-Nov-09 07:32N 52°34' E 004°20'815.2
2018-Nov-09 07:02N 52°39' E 004°11'10617.6
2018-Nov-09 00:59N 53°42' E 001°48'1217.3
2018-Nov-09 00:19N 53°49' E 001°32'717.3
2018-Nov-08 23:54N 53°54' E 001°23'817.4
2018-Nov-08 23:25N 53°59' E 001°13'4317.7
2018-Nov-08 20:59N 54°24' E 000°13'5217.6
2018-Nov-08 18:01N 54°53' W 001°03'917.8
2018-Nov-08 17:32N 54°58' W 001°15'713.9
2018-Nov-08 17:03N 55°00' W 001°26'1 2.2
2018-Nov-08 16:33N 54°59' W 001°27'0 0.0
2018-Nov-08 15:55N 54°59' W 001°27'0 0.0
2018-Nov-08 15:25N 54°59' W 001°27'0 0.0
2018-Nov-08 14:58N 54°59' W 001°27'0 0.0
2018-Nov-08 14:28N 54°59' W 001°27'0 0.0
2018-Nov-08 13:58N 54°59' W 001°27'0 0.0
2018-Nov-08 13:28N 54°59' W 001°27'0 0.0
2018-Nov-08 12:58N 54°59' W 001°27'0 0.0
2018-Nov-08 12:31N 54°59' W 001°27'0 0.0
2018-Nov-08 12:01N 54°59' W 001°27'0 0.0
2018-Nov-08 11:31N 54°59' W 001°27'0 0.0
2018-Nov-08 11:01N 54°59' W 001°27'0 0.0
2018-Nov-08 10:28N 54°59' W 001°27'0 0.0
2018-Nov-08 10:01N 54°59' W 001°27'0 0.0
2018-Nov-08 09:31N 54°59' W 001°27'0 0.2
2018-Nov-08 09:02N 54°60' W 001°27'4 7.6
2018-Nov-08 08:33N 55°01' W 001°21'815.5
2018-Nov-08 08:02N 54°56' W 001°09'23616.5
2018-Nov-07 17:44N 52°38' E 004°14'315.3
2018-Nov-07 17:33N 52°36' E 004°18'815.5
2018-Nov-07 17:03N 52°31' E 004°28'510.4
2018-Nov-07 16:32N 52°28' E 004°35'0 0.0
2018-Nov-07 16:02N 52°28' E 004°35'0 0.0
2018-Nov-07 15:32N 52°28' E 004°35'0 0.0
2018-Nov-07 15:02N 52°28' E 004°35'0 0.0
2018-Nov-07 14:32N 52°28' E 004°35'0 0.0
2018-Nov-07 13:59N 52°28' E 004°35'0 0.0
2018-Nov-07 13:32N 52°28' E 004°35'0 0.0
2018-Nov-07 12:59N 52°28' E 004°35'0 0.0
2018-Nov-07 12:32N 52°28' E 004°35'0 0.0
2018-Nov-07 12:02N 52°28' E 004°35'0 0.0
2018-Nov-07 11:32N 52°28' E 004°35'0 0.0
2018-Nov-07 10:59N 52°28' E 004°35'0 0.0
2018-Nov-07 10:29N 52°28' E 004°35'0 0.0
2018-Nov-07 10:02N 52°28' E 004°35'0 0.0
2018-Nov-07 09:32N 52°28' E 004°35'0 0.0
2018-Nov-07 08:59N 52°28' E 004°35'0 0.1
2018-Nov-07 08:32N 52°28' E 004°35'4 8.3
2018-Nov-07 08:02N 52°29' E 004°28'714.4
2018-Nov-07 07:32N 52°34' E 004°20'815.6
2018-Nov-07 07:02N 52°39' E 004°11'917.4
2018-Nov-07 06:32N 52°45' E 004°00'22017.6
2018-Nov-06 18:05N 54°53' W 001°03'017.4
2018-Nov-06 18:03N 54°53' W 001°03'117.3
2018-Nov-06 18:00N 54°54' W 001°04'917.5
2018-Nov-06 17:30N 54°59' W 001°17'612.3
2018-Nov-06 17:03N 55°00' W 001°26'0 6.1
2018-Nov-06 17:00N 55°00' W 001°27'1 1.5
2018-Nov-06 16:30N 54°59' W 001°27'0 0.0
2018-Nov-06 16:00N 54°59' W 001°27'0 0.0
2018-Nov-06 15:30N 54°59' W 001°27'0 0.0
2018-Nov-06 15:00N 54°59' W 001°27'0 0.0
2018-Nov-06 14:30N 54°59' W 001°27'0 0.0
2018-Nov-06 14:00N 54°59' W 001°27'0 0.0
2018-Nov-06 13:24N 54°59' W 001°27'0 0.0
2018-Nov-06 12:57N 54°59' W 001°27'0 0.0
2018-Nov-06 12:30N 54°59' W 001°27'0 0.0
2018-Nov-06 12:03N 54°59' W 001°27'0 0.0
2018-Nov-06 12:00N 54°59' W 001°27'0 0.0
2018-Nov-06 11:30N 54°59' W 001°27'0 0.0
2018-Nov-06 11:00N 54°59' W 001°27'0 0.0
2018-Nov-06 10:30N 54°59' W 001°27'0 0.0
2018-Nov-06 10:00N 54°59' W 001°27'0 0.0
2018-Nov-06 09:30N 54°59' W 001°27'0 0.1
2018-Nov-06 09:03N 54°59' W 001°27'0 4.5
2018-Nov-06 09:00N 54°60' W 001°27'4 7.5
2018-Nov-06 08:30N 55°00' W 001°20'715.4
2018-Nov-06 08:03N 54°55' W 001°12'115.2
2018-Nov-06 08:00N 54°55' W 001°10'11716.1
2018-Nov-06 00:44N 53°49' E 001°37'4616.6
2018-Nov-05 21:58N 53°23' E 002°41'2316.0
2018-Nov-05 20:33N 53°10' E 003°11'116.0
2018-Nov-05 20:30N 53°09' E 003°12'715.8
2018-Nov-05 20:03N 53°05' E 003°21'215.8
2018-Nov-05 19:56N 53°03' E 003°23'2215.7
2018-Nov-05 18:30N 52°49' E 003°52'815.5
2018-Nov-05 17:59N 52°44' E 004°02'815.7
2018-Nov-05 17:29N 52°39' E 004°12'715.8
2018-Nov-05 17:03N 52°34' E 004°20'115.6
2018-Nov-05 17:00N 52°34' E 004°21'815.7
2018-Nov-05 16:30N 52°29' E 004°31'3 6.0
2018-Nov-05 16:04N 52°28' E 004°35'0 0.0
2018-Nov-05 16:00N 52°28' E 004°35'0 0.0
2018-Nov-05 15:29N 52°28' E 004°35'0 0.0
2018-Nov-05 15:02N 52°28' E 004°35'0 0.0
2018-Nov-05 14:56N 52°28' E 004°35'0 0.0
2018-Nov-05 14:29N 52°28' E 004°35'0 0.0
2018-Nov-05 14:02N 52°28' E 004°35'0 0.0
2018-Nov-05 13:59N 52°28' E 004°35'0 0.0
2018-Nov-05 13:02N 52°28' E 004°35'0 0.0
2018-Nov-05 12:56N 52°28' E 004°35'0 0.0
2018-Nov-05 12:29N 52°28' E 004°35'0 0.0
2018-Nov-05 12:02N 52°28' E 004°35'0 0.0
2018-Nov-05 11:59N 52°28' E 004°35'0 0.0
2018-Nov-05 11:29N 52°28' E 004°35'0 0.0
2018-Nov-05 11:02N 52°28' E 004°35'0 0.0
2018-Nov-05 10:59N 52°28' E 004°35'0 0.0
2018-Nov-05 10:29N 52°28' E 004°35'0 0.0
2018-Nov-05 10:02N 52°28' E 004°35'0 0.0
2018-Nov-05 09:59N 52°28' E 004°35'0 0.0
2018-Nov-05 09:29N 52°28' E 004°35'0 0.0
2018-Nov-05 08:56N 52°28' E 004°35'0 0.1
2018-Nov-05 08:30N 52°28' E 004°35'3 5.8
2018-Nov-05 08:03N 52°28' E 004°31'115.5
2018-Nov-05 08:00N 52°29' E 004°30'815.5
2018-Nov-05 07:30N 52°34' E 004°20'715.4
2018-Nov-05 07:03N 52°38' E 004°11'115.4
2018-Nov-05 07:00N 52°39' E 004°10'1315.3
2018-Nov-05 06:10N 52°47' E 003°55'315.7
2018-Nov-05 05:57N 52°50' E 003°50'815.8
2018-Nov-05 05:26N 52°55' E 003°40'615.9
2018-Nov-05 05:03N 52°59' E 003°32'115.7
2018-Nov-05 04:59N 52°59' E 003°31'1618.2
2018-Nov-05 04:07N 53°09' E 003°11'618.4
2018-Nov-05 03:47N 53°13' E 003°02'7817.7
2018-Nov-04 23:22N 53°58' E 001°14'617.8
2018-Nov-04 23:03N 54°02' E 001°08'117.9
2018-Nov-04 23:00N 54°03' E 001°07'1117.7
2018-Nov-04 22:23N 54°09' E 000°51'617.6
2018-Nov-04 22:03N 54°12' E 000°43'117.5
2018-Nov-04 22:00N 54°13' E 000°41'917.6
2018-Nov-04 21:30N 54°17' E 000°29'1017.6
2018-Nov-04 20:55N 54°23' E 000°15'5417.4
2018-Nov-04 17:51N 54°53' W 001°02'617.7
2018-Nov-04 17:30N 54°56' W 001°11'817.1
2018-Nov-04 17:01N 55°01' W 001°24'2 4.6
2018-Nov-04 16:30N 54°59' W 001°27'0 0.0
2018-Nov-04 16:03N 54°59' W 001°27'0 0.0
2018-Nov-04 16:00N 54°59' W 001°27'0 0.0
2018-Nov-04 15:30N 54°59' W 001°27'0 0.0
2018-Nov-04 15:03N 54°59' W 001°27'0 0.0
2018-Nov-04 15:00N 54°59' W 001°27'0 0.0
2018-Nov-04 14:30N 54°59' W 001°27'0 0.0
2018-Nov-04 14:03N 54°59' W 001°27'0 0.0
2018-Nov-04 14:00N 54°59' W 001°27'0 0.0
2018-Nov-04 13:27N 54°59' W 001°27'0 0.0
2018-Nov-04 13:03N 54°59' W 001°27'0 0.0
2018-Nov-04 12:54N 54°59' W 001°27'0 0.0
2018-Nov-04 12:21N 54°59' W 001°27'0 0.0
2018-Nov-04 12:03N 54°59' W 001°27'0 0.0
2018-Nov-04 11:51N 54°59' W 001°27'0 0.0
2018-Nov-04 11:24N 54°59' W 001°27'0 0.0
2018-Nov-04 11:03N 54°59' W 001°27'0 0.0
2018-Nov-04 10:54N 54°59' W 001°27'0 0.0
2018-Nov-04 10:24N 54°59' W 001°27'0 0.0
2018-Nov-04 10:03N 54°59' W 001°27'0 0.0
2018-Nov-04 09:54N 54°59' W 001°27'0 0.0
2018-Nov-04 09:27N 54°59' W 001°27'0 0.0
2018-Nov-04 09:03N 54°59' W 001°27'0 1.7
2018-Nov-04 09:00N 54°60' W 001°27'5 9.5
2018-Nov-04 08:30N 54°60' W 001°19'716.4
2018-Nov-04 08:03N 54°55' W 001°08'116.4
2018-Nov-04 08:00N 54°55' W 001°07'23016.1
2018-Nov-03 17:43N 52°41' E 004°08'415.4
2018-Nov-03 17:27N 52°38' E 004°13'615.4
2018-Nov-03 17:03N 52°34' E 004°21'115.3
2018-Nov-03 17:01N 52°34' E 004°22'815.3
2018-Nov-03 16:30N 52°28' E 004°31'2 5.5
2018-Nov-03 16:03N 52°28' E 004°35'0 0.0
2018-Nov-03 16:00N 52°28' E 004°35'0 0.0
2018-Nov-03 15:28N 52°28' E 004°35'0 0.0
2018-Nov-03 14:28N 52°28' E 004°35'0 0.0
2018-Nov-03 14:01N 52°28' E 004°35'0 0.0
2018-Nov-03 13:58N 52°28' E 004°35'0 0.0
2018-Nov-03 13:28N 52°28' E 004°35'0 0.0
2018-Nov-03 12:58N 52°28' E 004°35'0 0.0
2018-Nov-03 12:28N 52°28' E 004°35'0 0.0
2018-Nov-03 11:58N 52°28' E 004°35'0 0.0
2018-Nov-03 11:28N 52°28' E 004°35'0 0.0
2018-Nov-03 10:58N 52°28' E 004°35'0 0.0
2018-Nov-03 10:28N 52°28' E 004°35'0 0.0
2018-Nov-03 10:01N 52°28' E 004°35'0 0.0
2018-Nov-03 09:58N 52°28' E 004°35'0 0.0
2018-Nov-03 09:28N 52°28' E 004°35'0 0.0
2018-Nov-03 09:01N 52°28' E 004°35'0 0.0
2018-Nov-03 08:58N 52°28' E 004°35'0 0.1
2018-Nov-03 08:30N 52°28' E 004°35'3 6.5
2018-Nov-03 08:03N 52°28' E 004°30'114.7
2018-Nov-03 08:01N 52°28' E 004°29'714.2
2018-Nov-03 07:31N 52°33' E 004°21'715.1
2018-Nov-03 07:03N 52°38' E 004°13'115.7
2018-Nov-03 07:00N 52°39' E 004°12'815.8
2018-Nov-03 06:31N 52°44' E 004°02'5417.4
2018-Nov-03 03:25N 53°17' E 002°52'918.5
2018-Nov-03 02:57N 53°23' E 002°40'3318.4
2018-Nov-03 01:09N 53°40' E 001°53'218.6
2018-Nov-03 01:01N 53°41' E 001°50'018.4
2018-Nov-03 01:00N 53°41' E 001°49'1218.0
2018-Nov-03 00:22N 53°48' E 001°33'6218.2
2018-Nov-02 20:59N 54°25' E 000°10'4917.8
2018-Nov-02 18:14N 54°53' W 001°00'317.8
2018-Nov-02 18:03N 54°54' W 001°05'117.8
2018-Nov-02 18:00N 54°55' W 001°06'917.8
2018-Nov-02 17:30N 54°59' W 001°19'4 9.2
2018-Nov-02 17:03N 54°60' W 001°27'0 5.1
2018-Nov-02 17:00N 54°60' W 001°27'0 0.2
2018-Nov-02 16:30N 54°59' W 001°27'0 0.0
2018-Nov-02 15:55N 54°59' W 001°27'0 0.0
2018-Nov-02 15:25N 54°59' W 001°27'0 0.0
2018-Nov-02 14:58N 54°59' W 001°27'0 0.0
2018-Nov-02 14:28N 54°59' W 001°27'0 0.0
2018-Nov-02 13:58N 54°59' W 001°27'0 0.0
2018-Nov-02 13:28N 54°59' W 001°27'0 0.0
2018-Nov-02 12:58N 54°59' W 001°27'0 0.0
2018-Nov-02 12:28N 54°59' W 001°27'0 0.0
2018-Nov-02 11:58N 54°59' W 001°27'0 0.0
2018-Nov-02 11:28N 54°59' W 001°27'0 0.0
2018-Nov-02 11:01N 54°59' W 001°27'0 0.0
2018-Nov-02 10:58N 54°59' W 001°27'0 0.0
2018-Nov-02 10:28N 54°59' W 001°27'0 0.0
2018-Nov-02 10:01N 54°59' W 001°27'0 0.0
2018-Nov-02 09:58N 54°59' W 001°27'0 0.0
2018-Nov-02 09:28N 54°59' W 001°27'0 0.6
2018-Nov-02 09:03N 54°60' W 001°27'0 6.3
2018-Nov-02 09:00N 54°60' W 001°27'5 9.5
2018-Nov-02 08:30N 54°60' W 001°18'814.9
2018-Nov-02 08:00N 54°55' W 001°08'23616.1
2018-Nov-01 17:22N 52°36' E 004°16'515.6
2018-Nov-01 17:03N 52°33' E 004°22'115.7
2018-Nov-01 17:00N 52°33' E 004°23'815.5
2018-Nov-01 16:30N 52°28' E 004°33'2 3.3
2018-Nov-01 16:03N 52°28' E 004°35'0 0.0
2018-Nov-01 16:00N 52°28' E 004°35'0 0.0
2018-Nov-01 15:28N 52°28' E 004°35'0 0.0
2018-Nov-01 15:01N 52°28' E 004°35'0 0.0
2018-Nov-01 14:58N 52°28' E 004°35'0 0.0
2018-Nov-01 14:28N 52°28' E 004°35'0 0.0
2018-Nov-01 13:58N 52°28' E 004°35'0 0.0
2018-Nov-01 13:28N 52°28' E 004°35'0 0.0
2018-Nov-01 13:01N 52°28' E 004°35'0 0.0
2018-Nov-01 12:58N 52°28' E 004°35'0 0.0
2018-Nov-01 12:28N 52°28' E 004°35'0 0.0
2018-Nov-01 12:01N 52°28' E 004°35'0 0.0
2018-Nov-01 11:58N 52°28' E 004°35'0 0.0
2018-Nov-01 11:28N 52°28' E 004°35'0 0.0
2018-Nov-01 10:58N 52°28' E 004°35'0 0.0
2018-Nov-01 10:28N 52°28' E 004°35'0 0.0
2018-Nov-01 10:01N 52°28' E 004°35'0 0.0
2018-Nov-01 09:58N 52°28' E 004°35'0 0.0
2018-Nov-01 09:28N 52°28' E 004°35'0 0.0
2018-Nov-01 09:03N 52°28' E 004°35'0 0.1
2018-Nov-01 09:00N 52°28' E 004°35'2 4.6
2018-Nov-01 08:31N 52°28' E 004°31'715.9
2018-Nov-01 08:04N 52°33' E 004°23'116.1
2018-Nov-01 08:01N 52°34' E 004°22'816.3
2018-Nov-01 07:30N 52°39' E 004°11'816.6
2018-Nov-01 07:03N 52°44' E 004°02'116.4
2018-Nov-01 07:01N 52°44' E 004°01'  

Dump ship's entire track history